Time;durP1;ratioP1;P1;durP2;ratioP2;P2;SDS_P1;SDS_P2;PMS_P1;PMS_P2;Temp;Humidity;BMP_temperature;BMP_pressure;BME280_temperature;BME280_humidity;BME280_pressure;Samples;Min_cycle;Max_cycle;Signal;HPM_P1;HPM_P2
2022/05/10 00:01:36;;;;;;;20.92;14.43;;;;;;;15.18;63.52;101987.56;5019482;28;20029;-70
2022/05/10 00:04:03;;;;;;;21.48;14.18;;;;;;;15.15;64.07;101988.75;5020154;28;20017;-71
2022/05/10 00:06:35;;;;;;;18.40;14.35;;;;;;;15.09;63.98;101984.09;5021529;28;20025;-72
2022/05/10 00:09:01;;;;;;;25.55;15.48;;;;;;;15.06;64.09;101970.22;5018296;28;20030;-71
2022/05/10 00:11:26;;;;;;;18.55;14.13;;;;;;;15.07;64.24;101971.88;5019422;28;20037;-70
2022/05/10 00:13:52;;;;;;;23.02;14.48;;;;;;;15.05;64.71;101966.72;5019746;28;20072;-71
2022/05/10 00:16:18;;;;;;;19.42;14.68;;;;;;;15.06;64.57;101973.72;5023860;28;20040;-70
2022/05/10 00:18:44;;;;;;;23.48;14.45;;;;;;;15.10;64.63;101964.34;5021572;28;20075;-70
2022/05/10 00:21:12;;;;;;;22.67;14.02;;;;;;;15.10;64.20;101969.69;5023962;28;20030;-70
2022/05/10 00:23:38;;;;;;;18.05;14.23;;;;;;;15.14;64.56;101959.47;5022428;28;20029;-70
2022/05/10 00:26:03;;;;;;;21.40;14.68;;;;;;;15.08;64.17;101955.66;5027930;28;20095;-70
2022/05/10 00:28:29;;;;;;;20.08;14.50;;;;;;;15.11;64.03;101951.81;5024419;28;20022;-69
2022/05/10 00:30:54;;;;;;;18.77;14.30;;;;;;;15.00;64.47;101957.50;5027566;28;20087;-70
2022/05/10 00:33:26;;;;;;;19.08;14.73;;;;;;;14.97;64.57;101952.50;5024651;28;20029;-70
2022/05/10 00:35:52;;;;;;;19.73;14.68;;;;;;;14.88;65.16;101949.84;5025758;28;21472;-70
2022/05/10 00:38:17;;;;;;;22.85;13.88;;;;;;;14.95;65.03;101950.00;5026699;28;20029;-71
2022/05/10 00:40:42;;;;;;;18.83;14.23;;;;;;;14.99;64.88;101956.66;5023414;28;20034;-70
2022/05/10 00:43:29;;;;;;;18.80;14.82;;;;;;;15.02;65.35;101950.13;5024196;28;20087;-72
2022/05/10 00:46:00;;;;;;;23.00;15.18;;;;;;;14.93;65.61;101946.66;5022359;28;20410;-70
2022/05/10 00:48:38;;;;;;;22.25;15.88;;;;;;;14.88;65.42;101951.69;5024801;28;20022;-70
2022/05/10 00:51:20;;;;;;;22.05;16.23;;;;;;;14.85;65.64;101954.72;5022905;28;20029;-71
2022/05/10 00:54:03;;;;;;;25.30;16.38;;;;;;;14.72;65.75;101939.19;5019611;28;20026;-71
2022/05/10 00:56:44;;;;;;;22.23;16.33;;;;;;;14.65;65.84;101937.38;5027088;28;20036;-70
2022/05/10 00:59:32;;;;;;;22.08;15.88;;;;;;;14.72;66.08;101941.03;5023997;28;20029;-71
2022/05/10 01:02:05;;;;;;;25.27;16.35;;;;;;;14.62;66.09;101927.88;5026321;28;20108;-70
2022/05/10 01:04:39;;;;;;;19.92;15.55;;;;;;;14.66;66.34;101929.19;5023903;28;20574;-70
2022/05/10 01:07:15;;;;;;;24.90;16.63;;;;;;;14.66;66.59;101931.84;5024918;28;20031;-71
2022/05/10 01:09:48;;;;;;;20.58;16.38;;;;;;;14.51;66.53;101923.72;5024091;28;20036;-70
2022/05/10 01:12:23;;;;;;;24.98;17.20;;;;;;;14.46;66.81;101931.41;5023571;28;20033;-69
2022/05/10 01:15:00;;;;;;;19.45;16.77;;;;;;;14.47;66.90;101921.56;5024981;28;20143;-70
2022/05/10 01:17:26;;;;;;;20.90;16.05;;;;;;;14.41;67.15;101922.19;5024258;28;20030;-70
2022/05/10 01:19:51;;;;;;;18.63;15.02;;;;;;;14.51;66.86;101918.38;5024727;28;20131;-71
2022/05/10 01:22:47;;;;;;;22.05;16.27;;;;;;;14.41;67.45;101925.69;5025141;28;20530;-70
2022/05/10 01:25:24;;;;;;;23.92;17.20;;;;;;;14.21;67.69;101913.69;5020492;28;20026;-70
2022/05/10 01:28:18;;;;;;;24.08;17.45;;;;;;;14.16;68.50;101908.84;5024112;28;20029;-70
2022/05/10 01:30:44;;;;;;;21.42;16.63;;;;;;;14.12;68.15;101904.84;5025643;28;20415;-70
2022/05/10 01:33:32;;;;;;;23.83;16.50;;;;;;;14.22;68.54;101899.34;5024904;28;20052;-72
2022/05/10 01:36:17;;;;;;;24.33;17.93;;;;;;;14.26;68.59;101906.00;5018800;28;20029;-71
2022/05/10 01:39:07;;;;;;;22.83;17.48;;;;;;;14.33;68.54;101900.81;5023695;28;20032;-70
2022/05/10 01:41:47;;;;;;;25.88;17.90;;;;;;;14.32;68.35;101893.81;5022836;28;20494;-71
2022/05/10 01:44:23;;;;;;;26.92;17.40;;;;;;;14.29;68.40;101884.28;5024009;28;20037;-71
2022/05/10 01:46:54;;;;;;;23.27;17.75;;;;;;;14.34;68.23;101889.13;5025764;28;20030;-70
2022/05/10 01:49:41;;;;;;;23.38;17.35;;;;;;;14.41;68.41;101879.41;5024204;28;20656;-70
2022/05/10 01:52:16;;;;;;;28.15;18.30;;;;;;;14.34;68.08;101873.09;5024007;28;20075;-70
2022/05/10 01:54:59;;;;;;;24.95;17.38;;;;;;;14.41;68.14;101874.91;5021451;28;20505;-70
2022/05/10 01:57:26;;;;;;;25.23;17.80;;;;;;;14.32;68.13;101878.59;5026921;28;20118;-70
2022/05/10 02:00:02;;;;;;;25.38;17.77;;;;;;;14.25;67.81;101877.63;5025869;28;20036;-70
2022/05/10 02:02:30;;;;;;;23.30;17.55;;;;;;;14.26;67.99;101876.63;5039439;28;20017;-70
2022/05/10 02:05:00;;;;;;;21.95;17.35;;;;;;;14.25;67.90;101875.78;5022286;28;20040;-70
2022/05/10 02:07:26;;;;;;;31.27;18.52;;;;;;;14.27;68.39;101870.28;5022759;28;20482;-70
2022/05/10 02:10:14;;;;;;;22.15;17.35;;;;;;;14.30;68.04;101861.91;5024884;28;20037;-71
2022/05/10 02:12:44;;;;;;;22.65;18.17;;;;;;;14.24;68.26;101870.63;5026076;28;20033;-70
2022/05/10 02:15:13;;;;;;;23.55;18.17;;;;;;;14.30;68.03;101871.78;5021712;28;20371;-70
2022/05/10 02:17:49;;;;;;;25.33;18.05;;;;;;;14.37;68.60;101865.56;5022713;28;20033;-71
2022/05/10 02:20:30;;;;;;;24.98;18.45;;;;;;;14.43;68.31;101861.41;5023773;28;20847;-71
2022/05/10 02:23:10;;;;;;;28.95;18.30;;;;;;;14.50;68.36;101855.22;5024374;28;20025;-71
2022/05/10 02:25:43;;;;;;;31.80;19.38;;;;;;;14.55;68.19;101850.19;5025236;28;20026;-70
2022/05/10 02:28:38;;;;;;;24.88;19.02;;;;;;;14.62;67.80;101850.34;5024682;28;20044;-70
2022/05/10 02:31:10;;;;;;;28.17;19.63;;;;;;;14.52;67.88;101837.19;5022818;28;20234;-70
2022/05/10 02:33:36;;;;;;;33.28;19.67;;;;;;;14.58;68.04;101835.66;5021438;28;20029;-70
2022/05/10 02:36:02;;;;;;;25.70;20.30;;;;;;;14.59;68.16;101839.16;5022252;28;20544;-70
2022/05/10 02:38:34;;;;;;;27.35;19.80;;;;;;;14.61;68.06;101837.97;5023112;28;20030;-70
2022/05/10 02:41:03;;;;;;;25.88;19.40;;;;;;;14.61;67.86;101823.78;5021863;28;20492;-70
2022/05/10 02:43:32;;;;;;;31.50;20.15;;;;;;;14.59;68.09;101831.97;5023795;28;20588;-70
2022/05/10 02:45:58;;;;;;;25.95;19.65;;;;;;;14.63;68.06;101832.44;5024258;28;20052;-70
2022/05/10 02:48:29;;;;;;;26.20;19.60;;;;;;;14.67;68.13;101829.25;5023419;28;20049;-70
2022/05/10 02:50:55;;;;;;;30.48;20.00;;;;;;;14.65;68.13;101822.41;5024262;28;20510;-70
2022/05/10 02:53:20;;;;;;;25.75;19.60;;;;;;;14.67;67.98;101823.06;5021742;28;20060;-70
2022/05/10 02:56:14;;;;;;;32.28;19.98;;;;;;;14.73;67.89;101828.56;5024290;28;20068;-69
2022/05/10 02:58:51;;;;;;;25.17;18.25;;;;;;;14.72;67.98;101824.22;5017020;28;20045;-70
2022/05/10 03:01:50;;;;;;;25.63;19.02;;;;;;;14.72;67.93;101815.38;5017519;28;20030;-70
2022/05/10 03:04:16;;;;;;;24.42;19.17;;;;;;;14.59;67.92;101810.59;4979411;28;20491;-70
2022/05/10 03:06:44;;;;;;;26.73;19.35;;;;;;;14.63;67.40;101817.25;5020670;28;20026;-70
2022/05/10 03:09:10;;;;;;;28.13;20.48;;;;;;;14.59;68.04;101820.44;5021635;28;20100;-70
2022/05/10 03:11:36;;;;;;;25.92;19.73;;;;;;;14.60;68.04;101814.09;5022756;28;20029;-70
2022/05/10 03:14:03;;;;;;;28.25;18.95;;;;;;;14.57;67.80;101810.75;5022190;28;20033;-70
2022/05/10 03:16:28;;;;;;;26.92;19.30;;;;;;;14.61;68.18;101807.72;5024530;28;20025;-70
2022/05/10 03:18:53;;;;;;;27.60;19.90;;;;;;;14.56;68.20;101803.75;5018369;28;20055;-70
2022/05/10 03:21:20;;;;;;;27.75;20.27;;;;;;;14.60;68.06;101796.22;5023924;28;20483;-70
2022/05/10 03:23:45;;;;;;;26.40;20.42;;;;;;;14.60;67.94;101800.72;5020431;28;20561;-71
2022/05/10 03:26:15;;;;;;;31.63;20.77;;;;;;;14.66;67.91;101800.84;5022003;28;20081;-70
2022/05/10 03:28:40;;;;;;;30.80;20.58;;;;;;;14.69;68.15;101797.00;5019905;28;20017;-71
2022/05/10 03:31:07;;;;;;;31.55;21.48;;;;;;;14.69;68.00;101789.81;5022564;28;20035;-70
2022/05/10 03:33:33;;;;;;;30.33;21.15;;;;;;;14.73;68.11;101787.63;5020106;28;20087;-70
2022/05/10 03:35:58;;;;;;;31.10;20.42;;;;;;;14.79;67.65;101784.28;5021603;28;20025;-70
2022/05/10 03:38:23;;;;;;;34.45;21.00;;;;;;;14.80;67.33;101788.59;5024125;28;20087;-70
2022/05/10 03:40:49;;;;;;;31.65;20.80;;;;;;;14.81;67.72;101788.44;5021140;28;20666;-69
2022/05/10 03:43:14;;;;;;;30.52;20.73;;;;;;;14.84;67.19;101781.91;5024139;28;20025;-70
2022/05/10 03:45:39;;;;;;;30.13;20.55;;;;;;;14.88;67.11;101778.69;5024381;28;20126;-70
2022/05/10 03:48:05;;;;;;;33.67;21.88;;;;;;;14.87;67.30;101774.34;5018072;28;20032;-70
2022/05/10 03:50:31;;;;;;;27.80;20.60;;;;;;;14.93;67.33;101771.97;5028651;28;20030;-70
2022/05/10 03:52:56;;;;;;;31.05;20.02;;;;;;;14.93;67.04;101780.00;5031157;28;20030;-70
2022/05/10 03:55:24;;;;;;;32.25;21.10;;;;;;;14.91;66.83;101771.31;5026429;28;20040;-70
2022/05/10 03:57:51;;;;;;;32.03;20.75;;;;;;;14.87;66.73;101774.34;5028635;28;20482;-70
2022/05/10 04:00:20;;;;;;;34.55;21.55;;;;;;;14.84;67.13;101777.38;5025893;28;20040;-70
2022/05/10 04:02:45;;;;;;;40.38;22.35;;;;;;;14.87;66.41;101774.34;5027000;28;20030;-70
2022/05/10 04:05:49;;;;;;;35.17;21.80;;;;;;;14.93;66.60;101774.66;5025288;28;20449;-70
2022/05/10 04:08:14;;;;;;;35.05;21.30;;;;;;;14.89;66.26;101771.50;5024537;28;20092;-70
2022/05/10 04:10:39;;;;;;;31.00;20.73;;;;;;;14.87;66.43;101770.84;5030612;28;20408;-70
2022/05/10 04:13:05;;;;;;;34.85;20.75;;;;;;;14.87;66.37;101770.84;5028091;28;20029;-70
2022/05/10 04:15:30;;;;;;;33.40;20.85;;;;;;;14.87;66.21;101770.84;5026915;28;20032;-69
2022/05/10 04:17:56;;;;;;;32.35;20.67;;;;;;;14.89;66.29;101768.81;5024128;28;20029;-69
2022/05/10 04:20:21;;;;;;;30.92;20.73;;;;;;;14.91;66.23;101761.47;5026086;28;20510;-70
2022/05/10 04:22:47;;;;;;;36.70;21.27;;;;;;;14.89;66.14;101766.16;5029275;28;20049;-69
2022/05/10 04:25:14;;;;;;;32.83;20.52;;;;;;;14.87;66.28;101766.31;5027648;28;20029;-70
2022/05/10 04:27:40;;;;;;;31.45;20.83;;;;;;;14.93;66.22;101771.97;5029742;28;20083;-70
2022/05/10 04:30:06;;;;;;;33.40;21.20;;;;;;;14.91;65.93;101761.47;5030711;28;20029;-70
2022/05/10 04:32:31;;;;;;;31.90;20.65;;;;;;;14.94;65.86;101755.75;5026948;28;20789;-69
2022/05/10 04:34:56;;;;;;;30.17;20.20;;;;;;;14.92;66.06;101749.75;5027373;28;20049;-70
2022/05/10 04:37:21;;;;;;;31.42;20.13;;;;;;;14.96;65.95;101756.41;5029822;28;20040;-70
2022/05/10 04:42:30;;;;;;;32.92;19.88;;;;;;;14.86;65.92;101734.41;5027464;28;20068;-69
2022/05/10 04:44:56;;;;;;;32.30;20.27;;;;;;;14.97;65.82;101754.56;5029088;28;20814;-69
2022/05/10 04:47:21;;;;;;;31.58;20.25;;;;;;;15.01;65.83;101742.50;5026373;28;20029;-70
2022/05/10 04:49:46;;;;;;;30.23;19.30;;;;;;;15.00;65.75;101746.19;5025754;28;20029;-70
2022/05/10 04:52:12;;;;;;;31.95;18.90;;;;;;;15.05;65.87;101752.69;5024294;28;20032;-70
2022/05/10 04:54:39;;;;;;;31.17;19.27;;;;;;;15.04;65.90;101744.84;5024788;28;20068;-69
2022/05/10 04:57:05;;;;;;;31.65;19.23;;;;;;;15.11;65.63;101743.94;5029348;28;20032;-70
2022/05/10 04:59:30;;;;;;;32.28;19.77;;;;;;;15.15;65.65;101749.78;5029782;28;20025;-70
2022/05/10 05:01:56;;;;;;;31.00;19.67;;;;;;;15.19;65.41;101745.72;5022048;28;20029;-70
2022/05/10 05:04:21;;;;;;;32.53;19.42;;;;;;;15.21;65.19;101756.25;5023314;28;20041;-70
2022/05/10 05:06:46;;;;;;;30.05;19.10;;;;;;;15.22;65.26;101752.56;5026422;28;20083;-69
2022/05/10 05:09:11;;;;;;;30.77;18.88;;;;;;;15.25;65.42;101753.03;5022337;28;20021;-70
2022/05/10 05:11:37;;;;;;;30.38;18.30;;;;;;;15.25;65.42;101752.19;5023000;28;20048;-70
2022/05/10 05:14:02;;;;;;;31.13;19.33;;;;;;;15.26;65.25;101746.66;5023214;28;20025;-69
2022/05/10 05:16:27;;;;;;;30.38;19.70;;;;;;;15.31;65.34;101744.28;5016091;28;20036;-70
2022/05/10 05:18:52;;;;;;;31.52;19.13;;;;;;;15.32;65.42;101751.28;5023192;28;20040;-69
2022/05/10 05:21:18;;;;;;;33.15;19.70;;;;;;;15.31;65.59;101740.78;5018637;28;20035;-70
2022/05/10 05:23:44;;;;;;;29.25;19.63;;;;;;;15.43;65.24;101758.09;5021115;28;20414;-70
2022/05/10 05:26:09;;;;;;;29.58;19.95;;;;;;;15.47;65.46;101754.03;5019334;28;20793;-69
2022/05/10 05:28:34;;;;;;;31.90;19.83;;;;;;;15.53;65.02;101752.47;5019793;28;20021;-70
2022/05/10 05:31:01;;;;;;;31.08;20.08;;;;;;;15.56;65.28;101750.25;5015922;28;20087;-70
2022/05/10 05:33:27;;;;;;;30.85;19.77;;;;;;;15.61;65.01;101752.41;5025975;28;20098;-69
2022/05/10 05:35:52;;;;;;;33.15;19.67;;;;;;;15.63;64.97;101751.25;5026445;28;20037;-70
2022/05/10 05:38:18;;;;;;;32.67;19.88;;;;;;;15.68;65.03;101748.88;5029527;28;20030;-69
2022/05/10 05:40:43;;;;;;;39.20;20.33;;;;;;;15.71;65.04;101750.34;5020482;28;21076;-69
2022/05/10 05:43:16;;;;;;;37.38;20.70;;;;;;;15.77;64.86;101753.13;5021145;28;20036;-69
2022/05/10 05:45:41;;;;;;;36.72;19.65;;;;;;;15.75;64.79;101748.97;5026552;28;20853;-69
2022/05/10 05:48:07;;;;;;;30.48;19.30;;;;;;;15.77;64.64;101742.41;5024246;28;20026;-70
2022/05/10 05:50:32;;;;;;;29.83;19.77;;;;;;;15.83;64.70;101737.31;5024472;28;20444;-70
2022/05/10 05:52:58;;;;;;;28.50;18.90;;;;;;;15.88;64.51;101737.59;5016361;28;20040;-71
2022/05/10 05:55:24;;;;;;;27.35;18.50;;;;;;;15.90;64.38;101738.25;5022393;28;20025;-69
2022/05/10 05:57:49;;;;;;;28.58;18.83;;;;;;;15.96;64.83;101734.84;5023075;28;20037;-69
2022/05/10 06:00:22;;;;;;;30.52;18.05;;;;;;;15.99;64.50;101735.31;5023497;28;20403;-70
2022/05/10 06:02:50;;;;;;;27.10;18.00;;;;;;;16.09;64.45;101730.50;5028706;28;20115;-70
2022/05/10 06:05:15;;;;;;;30.50;18.98;;;;;;;16.12;64.15;101729.31;5027654;28;20037;-69
2022/05/10 06:07:40;;;;;;;26.98;18.48;;;;;;;16.19;64.23;101734.75;5027609;28;20025;-69
2022/05/10 06:10:07;;;;;;;31.25;17.92;;;;;;;16.28;64.35;101741.69;5029076;28;20987;-69
2022/05/10 06:12:32;;;;;;;28.42;18.23;;;;;;;16.34;64.61;101736.41;5026323;28;20026;-69
2022/05/10 06:14:58;;;;;;;25.38;18.23;;;;;;;16.42;64.42;101733.63;5026124;28;20028;-69
2022/05/10 06:17:23;;;;;;;27.15;18.15;;;;;;;16.50;64.51;101732.72;5026176;28;20647;-69
2022/05/10 06:19:49;;;;;;;26.60;18.05;;;;;;;16.58;64.28;101737.13;5026057;28;20067;-69
2022/05/10 06:22:14;;;;;;;26.50;17.52;;;;;;;16.62;64.13;101738.41;5021249;28;20029;-69
2022/05/10 06:24:40;;;;;;;26.80;17.83;;;;;;;16.65;64.13;101728.13;5024232;28;20029;-69
2022/05/10 06:27:14;;;;;;;28.63;18.33;;;;;;;16.73;64.21;101729.88;5025624;28;20032;-68
2022/05/10 06:29:40;;;;;;;30.77;18.10;;;;;;;16.85;64.33;101735.63;5022815;28;20510;-69
2022/05/10 06:32:05;;;;;;;29.13;17.67;;;;;;;16.94;64.34;101734.47;5027290;28;20029;-69
2022/05/10 06:34:30;;;;;;;25.88;17.10;;;;;;;17.03;63.90;101728.78;5026849;28;20135;-69
2022/05/10 06:36:56;;;;;;;23.55;17.08;;;;;;;17.09;63.83;101724.50;5024794;28;20029;-69
2022/05/10 06:39:21;;;;;;;30.08;17.23;;;;;;;17.17;63.92;101724.38;5027156;28;20025;-69
2022/05/10 06:41:46;;;;;;;23.33;16.83;;;;;;;17.28;63.99;101720.34;5028319;28;20120;-69
2022/05/10 06:44:12;;;;;;;25.88;17.30;;;;;;;17.39;63.71;101724.38;5022046;28;20021;-69
2022/05/10 06:46:37;;;;;;;20.58;15.50;;;;;;;17.47;62.94;101725.06;5027240;28;20395;-69
2022/05/10 06:49:04;;;;;;;22.73;15.38;;;;;;;17.56;62.96;101718.50;5027678;28;20486;-69
2022/05/10 06:51:29;;;;;;;19.38;15.43;;;;;;;17.63;62.94;101714.00;5026241;28;20485;-69
2022/05/10 06:53:55;;;;;;;23.83;15.10;;;;;;;17.78;62.66;101721.19;5027088;28;20083;-69
2022/05/10 06:56:21;;;;;;;18.60;13.57;;;;;;;17.85;62.21;101712.13;5028056;28;20025;-69
2022/05/10 06:58:47;;;;;;;19.40;12.98;;;;;;;17.97;62.09;101714.28;5025220;28;20056;-69
2022/05/10 07:01:13;;;;;;;19.10;11.70;;;;;;;18.06;61.21;101711.22;5027515;28;20391;-70
2022/05/10 07:03:42;;;;;;;17.98;12.40;;;;;;;18.10;61.08;101712.47;5024317;28;20025;-69
2022/05/10 07:06:10;;;;;;;16.38;11.68;;;;;;;18.21;61.17;101713.75;5023736;28;20025;-70
2022/05/10 07:08:36;;;;;;;19.05;11.77;;;;;;;18.25;60.83;101698.91;5027850;28;20009;-69
2022/05/10 07:11:01;;;;;;;14.98;11.60;;;;;;;18.35;60.56;101690.47;5026258;28;20411;-70
2022/05/10 07:13:29;;;;;;;13.63;11.00;;;;;;;18.43;60.55;101704.56;5023651;28;20049;-69
2022/05/10 07:15:55;;;;;;;16.08;11.27;;;;;;;18.49;59.83;101694.84;5021441;28;20108;-69
2022/05/10 07:18:21;;;;;;;13.98;11.02;;;;;;;18.49;60.01;101686.78;5025195;28;20116;-69
2022/05/10 07:20:48;;;;;;;19.00;10.77;;;;;;;18.64;59.74;101695.56;5027217;28;20037;-69
2022/05/10 07:23:18;;;;;;;14.10;10.73;;;;;;;18.69;59.50;101684.19;5023068;28;20024;-69
2022/05/10 07:25:44;;;;;;;15.82;10.85;;;;;;;18.79;59.52;101696.25;5026082;28;20029;-69
2022/05/10 07:28:09;;;;;;;14.30;10.40;;;;;;;18.88;59.24;101686.94;5026362;28;20022;-69
2022/05/10 07:30:35;;;;;;;12.30;10.30;;;;;;;19.00;59.12;101689.00;5027310;28;20025;-69
2022/05/10 07:33:01;;;;;;;12.38;10.13;;;;;;;19.09;58.76;101688.63;5025816;28;20033;-69
2022/05/10 07:38:13;;;;;;;14.55;10.20;;;;;;;19.36;58.58;101681.34;5020181;28;20418;-69
2022/05/10 07:40:39;;;;;;;14.00;9.73;;;;;;;19.47;58.51;101685.31;5025773;28;20030;-69
2022/05/10 07:43:05;;;;;;;15.93;9.18;;;;;;;19.56;58.36;101683.25;5026826;28;20038;-68
2022/05/10 07:45:32;;;;;;;12.32;8.73;;;;;;;19.58;57.49;101689.25;5021858;28;20479;-69
2022/05/10 07:47:57;;;;;;;15.48;8.65;;;;;;;19.59;57.08;101680.94;5027049;28;20053;-69
2022/05/10 07:50:22;;;;;;;11.25;8.43;;;;;;;19.64;57.03;101683.84;5026586;28;20033;-69
2022/05/10 07:52:47;;;;;;;11.52;8.00;;;;;;;19.69;57.11;101680.53;5027482;28;20022;-69
2022/05/10 07:55:13;;;;;;;13.00;8.30;;;;;;;19.75;56.93;101672.44;5020956;28;20036;-70
2022/05/10 07:57:39;;;;;;;16.10;8.52;;;;;;;19.84;57.19;101677.59;5021504;28;20045;-69
2022/05/10 08:00:08;;;;;;;12.82;8.27;;;;;;;19.82;56.56;101672.41;5026901;28;20517;-71
2022/05/10 08:02:34;;;;;;;10.82;8.25;;;;;;;19.83;56.89;101673.25;5025272;28;20071;-69
2022/05/10 08:04:59;;;;;;;14.48;8.02;;;;;;;19.83;56.35;101671.38;5017476;28;20022;-69
2022/05/10 08:07:24;;;;;;;11.23;7.75;;;;;;;19.87;56.38;101680.69;5023794;28;20033;-69
2022/05/10 08:09:50;;;;;;;16.05;7.63;;;;;;;19.86;56.11;101679.03;5025880;28;20542;-69
2022/05/10 08:12:15;;;;;;;16.08;8.40;;;;;;;19.89;56.04;101684.00;5022051;28;20029;-69
2022/05/10 08:14:40;;;;;;;10.32;7.55;;;;;;;19.89;56.05;101680.47;5025392;28;20071;-69
2022/05/10 08:17:05;;;;;;;9.55;7.70;;;;;;;19.87;55.64;101669.91;5027662;28;20456;-70
2022/05/10 08:19:31;;;;;;;14.80;7.35;;;;;;;19.91;55.79;101673.84;5021488;28;20021;-68
2022/05/10 08:21:58;;;;;;;11.23;7.82;;;;;;;19.91;55.82;101676.53;5025881;28;20029;-69
2022/05/10 08:24:24;;;;;;;15.00;8.02;;;;;;;19.95;55.67;101677.78;5024232;28;20071;-69
2022/05/10 08:26:49;;;;;;;10.82;8.18;;;;;;;19.98;55.68;101680.06;5024820;28;20037;-69
2022/05/10 08:29:14;;;;;;;10.60;7.30;;;;;;;19.98;55.50;101666.56;5026430;28;20105;-69
2022/05/10 08:31:40;;;;;;;14.07;7.30;;;;;;;19.96;55.30;101657.88;5026982;28;20049;-69
2022/05/10 08:34:05;;;;;;;9.82;7.60;;;;;;;20.05;55.35;101661.16;5023412;28;20029;-69
2022/05/10 08:36:31;;;;;;;15.93;7.65;;;;;;;20.06;54.82;101657.41;5027539;28;20025;-69
2022/05/10 08:38:57;;;;;;;10.05;7.47;;;;;;;20.16;54.81;101663.16;5025336;28;20030;-69
2022/05/10 08:41:27;;;;;;;11.98;7.38;;;;;;;20.19;54.32;101657.34;5030537;28;20104;-68
2022/05/10 08:44:07;;;;;;;18.05;7.28;;;;;;;20.24;54.67;101667.50;5026728;28;20053;-69
2022/05/10 08:46:38;;;;;;;12.88;7.10;;;;;;;20.31;54.50;101652.94;5022744;28;20032;-69
2022/05/10 21:23:06;;;;;;;7.22;2.53;;;;;;;16.46;59.22;101395.44;4912472;29;20231;-62
2022/05/10 21:25:31;;;;;;;3.55;2.30;;;;;;;16.43;59.21;101376.03;4911549;29;20222;-61
2022/05/10 21:27:56;;;;;;;9.77;2.50;;;;;;;16.47;59.11;101378.31;4913701;29;20032;-61
2022/05/10 21:33:12;;;;;;;4.57;2.20;;;;;;;16.43;59.10;101370.66;4906801;29;20042;-61
2022/05/10 21:35:47;;;;;;;3.88;1.98;;;;;;;16.45;59.05;101377.69;4912783;29;20103;-61
2022/05/10 21:38:17;;;;;;;5.22;1.90;;;;;;;16.43;59.29;101372.53;4912905;29;20170;-61
2022/05/10 21:40:43;;;;;;;5.18;2.30;;;;;;;16.36;59.69;101372.47;4912583;29;20020;-61
2022/05/10 21:43:12;;;;;;;4.00;1.90;;;;;;;16.34;60.21;101379.06;4912008;29;20099;-61
2022/05/10 21:45:40;;;;;;;4.32;2.00;;;;;;;16.29;60.47;101371.63;4913665;29;20032;-61
2022/05/10 21:48:06;;;;;;;5.90;2.20;;;;;;;16.28;60.28;101361.91;4913039;29;20020;-61
2022/05/10 21:50:31;;;;;;;5.18;2.08;;;;;;;16.29;60.37;101371.63;4911692;29;20032;-61
2022/05/10 21:52:59;;;;;;;5.57;2.10;;;;;;;16.33;60.18;101377.41;4913229;29;20227;-61
2022/05/10 21:55:26;;;;;;;7.00;2.17;;;;;;;16.33;60.00;101375.56;4912597;29;20028;-61
2022/05/10 21:57:51;;;;;;;6.03;2.50;;;;;;;16.30;59.96;101378.63;4913148;29;20032;-61
2022/05/10 22:00:21;;;;;;;8.82;2.58;;;;;;;16.27;60.14;101378.19;4909825;29;20083;-61
2022/05/10 22:02:46;;;;;;;4.80;2.35;;;;;;;16.24;59.86;101366.00;4913072;29;20585;-61
2022/05/10 22:05:12;;;;;;;5.13;2.05;;;;;;;16.20;60.08;101363.91;4912572;29;20111;-61
2022/05/10 22:07:38;;;;;;;5.55;2.63;;;;;;;16.23;59.95;101355.50;4912691;29;20042;-61
2022/05/10 22:10:08;;;;;;;3.38;2.20;;;;;;;16.20;59.78;101350.53;4912073;29;20039;-60
2022/05/10 22:12:33;;;;;;;4.82;2.30;;;;;;;16.17;59.80;101350.88;4912426;29;20043;-61
2022/05/10 22:14:59;;;;;;;3.70;2.50;;;;;;;16.16;59.73;101346.56;4913276;29;20414;-61
2022/05/10 22:17:24;;;;;;;4.95;2.60;;;;;;;16.16;59.89;101349.22;4912054;29;20032;-61
2022/05/10 22:19:49;;;;;;;6.63;2.60;;;;;;;16.16;59.67;101350.06;4911570;29;20040;-61
2022/05/10 22:22:15;;;;;;;5.40;2.63;;;;;;;16.17;59.54;101351.72;4912380;29;20084;-61
2022/05/10 22:24:40;;;;;;;9.57;2.90;;;;;;;16.17;59.51;101348.19;4912999;29;20488;-61
2022/05/10 22:27:05;;;;;;;8.65;2.88;;;;;;;16.12;59.51;101351.47;4911793;29;20040;-61
2022/05/10 22:29:30;;;;;;;4.90;2.70;;;;;;;16.07;59.58;101345.88;4911262;29;20048;-61
2022/05/10 22:31:56;;;;;;;5.95;2.90;;;;;;;16.05;59.84;101342.56;4911994;29;20477;-61
2022/05/10 22:34:21;;;;;;;6.60;3.17;;;;;;;16.02;59.71;101346.47;4912316;29;20036;-61
2022/05/10 22:36:46;;;;;;;7.32;3.15;;;;;;;16.01;59.80;101342.13;4912038;29;20374;-61
2022/05/10 22:39:12;;;;;;;5.57;2.75;;;;;;;16.02;59.64;101340.28;4909838;29;20481;-61
2022/05/10 22:41:38;;;;;;;6.45;2.97;;;;;;;16.02;59.75;101340.28;4911591;29;20088;-61
2022/05/10 22:44:04;;;;;;;6.40;3.25;;;;;;;16.01;59.66;101346.66;4912263;29;20032;-61
2022/05/10 22:46:29;;;;;;;9.65;3.15;;;;;;;16.01;59.66;101336.75;4911396;29;20078;-61
2022/05/10 22:48:55;;;;;;;6.80;3.10;;;;;;;16.03;59.11;101339.25;4910881;29;20501;-61
2022/05/10 22:51:20;;;;;;;6.88;3.10;;;;;;;16.02;59.68;101340.28;4911736;29;20035;-61
2022/05/10 22:53:45;;;;;;;5.18;3.00;;;;;;;16.02;59.62;101340.28;4911658;29;20508;-61
2022/05/10 22:56:11;;;;;;;7.10;3.00;;;;;;;15.98;59.81;101334.47;4911705;29;20032;-61
2022/05/10 22:58:38;;;;;;;6.40;3.28;;;;;;;15.95;59.90;101328.69;4911286;29;20065;-61
2022/05/10 23:01:05;;;;;;;11.07;3.28;;;;;;;15.91;60.05;101325.56;4911658;29;20491;-61
2022/05/10 23:03:31;;;;;;;5.90;2.83;;;;;;;15.89;60.37;101319.53;4911572;29;20390;-61
2022/05/10 23:05:56;;;;;;;11.63;3.60;;;;;;;15.87;60.07;101313.56;4912009;29;20651;-61
2022/05/10 23:08:22;;;;;;;9.30;3.22;;;;;;;15.86;60.12;101325.28;4911677;29;20032;-61
2022/05/10 23:10:48;;;;;;;4.55;3.20;;;;;;;15.83;60.41;101312.28;4910444;29;20063;-62
2022/05/10 23:13:15;;;;;;;6.80;3.53;;;;;;;15.78;60.27;101312.88;4911515;29;20028;-61
2022/05/10 23:15:43;;;;;;;5.57;3.40;;;;;;;15.72;60.36;101299.44;4911418;29;20300;-61
2022/05/10 23:18:09;;;;;;;6.90;3.10;;;;;;;15.81;60.04;101314.34;4911730;29;20024;-61
2022/05/10 23:20:34;;;;;;;10.65;3.60;;;;;;;15.84;60.16;101307.75;4909844;29;20405;-61
2022/05/10 23:23:00;;;;;;;6.72;3.53;;;;;;;15.83;60.45;101308.78;4911551;29;20032;-61
2022/05/10 23:25:25;;;;;;;4.53;3.15;;;;;;;15.85;60.28;101306.75;4911117;29;20071;-61
2022/05/10 23:27:50;;;;;;;10.10;3.40;;;;;;;15.87;60.24;101308.19;4911852;29;20482;-61
2022/05/10 23:30:19;;;;;;;6.03;3.70;;;;;;;15.88;60.13;101304.50;4909607;29;20119;-61
2022/05/10 23:32:44;;;;;;;8.00;3.40;;;;;;;15.89;60.25;101295.44;4911806;29;20043;-61
2022/05/10 23:35:11;;;;;;;6.00;3.50;;;;;;;15.87;60.03;101299.34;4911155;29;20541;-61
2022/05/10 23:37:38;;;;;;;6.75;3.10;;;;;;;15.84;60.10;101294.38;4911824;29;20618;-61
2022/05/10 23:40:05;;;;;;;5.05;3.03;;;;;;;15.85;60.48;101293.34;4910368;29;20036;-61
2022/05/10 23:42:30;;;;;;;8.13;3.67;;;;;;;15.85;60.26;101290.66;4910819;29;20036;-61
2022/05/10 23:44:55;;;;;;;5.68;3.38;;;;;;;15.85;60.55;101282.63;4910593;29;20500;-61
2022/05/10 23:47:21;;;;;;;7.78;3.60;;;;;;;15.80;60.87;101281.38;4910931;29;20032;-61
2022/05/10 23:49:49;;;;;;;7.47;3.75;;;;;;;15.83;60.44;101282.00;4910277;29;20036;-61
2022/05/10 23:52:15;;;;;;;8.82;3.72;;;;;;;15.83;60.50;101273.97;4909766;29;20062;-61
2022/05/10 23:54:40;;;;;;;13.02;3.95;;;;;;;15.79;60.58;101274.38;4911603;29;20031;-61
2022/05/10 23:57:05;;;;;;;7.28;3.47;;;;;;;15.77;60.79;101267.53;4910700;29;20493;-61
2022/05/10 23:59:31;;;;;;;8.52;3.75;;;;;;;15.76;60.77;101264.03;4909972;29;20503;-61
